Hovedside
METAR-TAF:

METAR-TAF

Lufthavner :

Majuro, Marshalløyene

breddegrad: 07-04N, lengdegrad: 171-17E, høyde over havet: 2 m

Gjeldene værobservasjon

Denne rapporten ble laget for 10 timer og 38 minutter siden, klokken 04:50 UTC
Vind 8 kt fra Øst
Temperatur 28°C
Luftfuktighet 84%
Trykk 1008 hPa
Få skyer i en høyde av 1500 ft
Spredte skyer i en høyde av 5000 ft
Brutte skyer i en høyde av 12000 ft
Overskyet i en høyde av 30000 ft

METAR: PKMJ 140450Z 08008KT 15M FEW015 SCT050 BKN120 OVC300 28/25 A2977 RMK LAST

Tid: 03:28 (15:28 UTC)

Varsel

Denne rapporten ble laget for 3 timer og 55 minutter siden, klokken 11:33 UTC
Varsel gyldig fra 14. klokken 12 UTC til 15. klokken 12 UTC
Vind 11 kt fra Øst
Sikt: 10 km
Spredte skyer i en høyde av 1500 ft
Spredte skyer i en høyde av 5000 ft
Brutte skyer i en høyde av 12000 ft
regnbyger i nærheten

TAF: PKMJ 141133Z 1412/1512 08011KT P6SM VCSH SCT015 SCT050 BKN120

Værobservasjoner og værvarsel for over 4000 flyplasser (METAR- og TAF-rapporter).

Tilgjengelige stasjoner er representert av de røde og gule prikkene på kartet.

Hold musepekeren over prikken for å se navnet på stasjonen.

Klikk så for å se værobservasjoner og -varsler.

For å forandre kartet kan du klikke på den grønne knappen med svart kryss for å zoome inn, på den grønne knappen med strek for å zoome ut, eller på de grønne pilene for å se tilstøtende kart.


METAR-TAF: